Map

Track Data

SID SEASON NUMBER BASIN SUBBASIN NAME ISO_TIME NATURE LAT LON WMO_WIND WMO_PRES WMO_AGENCY TRACK_TYPE DIST2LAND LANDFALL IFLAG USA_AGENCY USA_ATCF_ID USA_LAT USA_LON USA_RECORD USA_STATUS USA_WIND USA_PRES USA_SSHS USA_R34_NE USA_R34_SE USA_R34_SW USA_R34_NW USA_R50_NE USA_R50_SE USA_R50_SW USA_R50_NW USA_R64_NE USA_R64_SE USA_R64_SW USA_R64_NW USA_POCI USA_ROCI USA_RMW USA_EYE TOKYO_LAT TOKYO_LON TOKYO_GRADE TOKYO_WIND TOKYO_PRES TOKYO_R50_DIR TOKYO_R50_LONG TOKYO_R50_SHORT TOKYO_R30_DIR TOKYO_R30_LONG TOKYO_R30_SHORT TOKYO_LAND CMA_LAT CMA_LON CMA_CAT CMA_WIND CMA_PRES HKO_LAT HKO_LON HKO_CAT HKO_WIND HKO_PRES NEWDELHI_LAT NEWDELHI_LON NEWDELHI_GRADE NEWDELHI_WIND NEWDELHI_PRES NEWDELHI_CI NEWDELHI_DP NEWDELHI_POCI REUNION_LAT REUNION_LON REUNION_TYPE REUNION_WIND REUNION_PRES REUNION_TNUM REUNION_CI REUNION_RMW REUNION_R34_NE REUNION_R34_SE REUNION_R34_SW REUNION_R34_NW REUNION_R50_NE REUNION_R50_SE REUNION_R50_SW REUNION_R50_NW REUNION_R64_NE REUNION_R64_SE REUNION_R64_SW REUNION_R64_NW BOM_LAT BOM_LON BOM_TYPE BOM_WIND BOM_PRES BOM_TNUM BOM_CI BOM_RMW BOM_R34_NE BOM_R34_SE BOM_R34_SW BOM_R34_NW BOM_R50_NE BOM_R50_SE BOM_R50_SW BOM_R50_NW BOM_R64_NE BOM_R64_SE BOM_R64_SW BOM_R64_NW BOM_ROCI BOM_POCI BOM_EYE BOM_POS_METHOD BOM_PRES_METHOD NADI_LAT NADI_LON NADI_CAT NADI_WIND NADI_PRES WELLINGTON_LAT WELLINGTON_LON WELLINGTON_WIND WELLINGTON_PRES DS824_LAT DS824_LON DS824_STAGE DS824_WIND DS824_PRES TD9636_LAT TD9636_LON TD9636_STAGE TD9636_WIND TD9636_PRES TD9635_LAT TD9635_LON TD9635_WIND TD9635_PRES TD9635_ROCI NEUMANN_LAT NEUMANN_LON NEUMANN_CLASS NEUMANN_WIND NEUMANN_PRES MLC_LAT MLC_LON MLC_CLASS MLC_WIND MLC_PRES USA_GUST BOM_GUST BOM_GUST_PER REUNION_GUST REUNION_GUST_PER USA_SEAHGT USA_SEARAD_NE USA_SEARAD_SE USA_SEARAD_SW USA_SEARAD_NW STORM_SPEED STORM_DIR
1912160N28272 1912 25 NA GM NOT_NAMED 1912-06-07 12:00:00 TS 28.0000 -88.0000 35 hurdat_atl main 154 154 O_____________ hurdat_atl AL011912 28.0000 -88.0000 TS 35 0 4 138
1912160N28272 1912 25 NA GM NOT_NAMED 1912-06-07 15:00:00 TS 27.8525 -87.8499 main 176 176 P_____________ AL011912 27.8525 -87.8499 TS 35 0 4 139
1912160N28272 1912 25 NA GM NOT_NAMED 1912-06-07 18:00:00 TS 27.7000 -87.7000 35 hurdat_atl main 199 199 O_____________ hurdat_atl AL011912 27.7000 -87.7000 TS 35 0 4 140
1912160N28272 1912 25 NA GM NOT_NAMED 1912-06-07 21:00:00 TS 27.5425 -87.5500 main 222 222 P_____________ AL011912 27.5425 -87.5500 TS 37 0 4 139
1912160N28272 1912 25 NA GM NOT_NAMED 1912-06-08 00:00:00 TS 27.4000 -87.4000 40 hurdat_atl main 244 244 O_____________ hurdat_atl AL011912 27.4000 -87.4000 TS 40 0 4 132
1912160N28272 1912 25 NA GM NOT_NAMED 1912-06-08 03:00:00 TS 27.2925 -87.2350 main 265 265 P_____________ AL011912 27.2925 -87.2350 TS 42 0 3 127
1912160N28272 1912 25 NA GM NOT_NAMED 1912-06-08 06:00:00 TS 27.2000 -87.1000 45 hurdat_atl main 280 280 O_____________ hurdat_atl AL011912 27.2000 -87.1000 TS 45 0 3 133
1912160N28272 1912 25 NA GM NOT_NAMED 1912-06-08 09:00:00 TS 27.1000 -87.0050 main 295 295 P_____________ AL011912 27.1000 -87.0050 TS 47 0 2 155
1912160N28272 1912 25 NA GM NOT_NAMED 1912-06-08 12:00:00 TS 27.0000 -87.0000 50 hurdat_atl main 303 303 O_____________ hurdat_atl AL011912 27.0000 -87.0000 TS 50 0 2 204
1912160N28272 1912 25 NA GM NOT_NAMED 1912-06-08 15:00:00 TS 26.8925 -87.1051 main 305 299 P_____________ AL011912 26.8925 -87.1051 TS 50 0 3 233
1912160N28272 1912 25 NA GM NOT_NAMED 1912-06-08 18:00:00 TS 26.8000 -87.3000 50 hurdat_atl main 302 291 O_____________ hurdat_atl AL011912 26.8000 -87.3000 TS 50 0 4 248
1912160N28272 1912 25 NA GM NOT_NAMED 1912-06-08 21:00:00 TS 26.7425 -87.5275 main 301 286 P_____________ AL011912 26.7425 -87.5275 TS 50 0 5 257
1912160N28272 1912 25 NA GM NOT_NAMED 1912-06-09 00:00:00 TS 26.7000 -87.8000 50 hurdat_atl main 286 274 O_____________ hurdat_atl AL011912 26.7000 -87.8000 TS 50 0 5 260
1912160N28272 1912 25 NA GM NOT_NAMED 1912-06-09 03:00:00 TS 26.6500 -88.0925 main 285 276 P_____________ AL011912 26.6500 -88.0925 TS 52 0 5 259
1912160N28272 1912 25 NA GM NOT_NAMED 1912-06-09 06:00:00 TS 26.6000 -88.4000 55 hurdat_atl main 276 270 O_____________ hurdat_atl AL011912 26.6000 -88.4000 TS 55 0 6 260
1912160N28272 1912 25 NA GM NOT_NAMED 1912-06-09 09:00:00 TS 26.5500 -88.7075 main 281 279 P_____________ AL011912 26.5500 -88.7075 TS 57 0 5 259
1912160N28272 1912 25 NA GM NOT_NAMED 1912-06-09 12:00:00 TS 26.5000 -89.0000 60 hurdat_atl main 279 279 O_____________ hurdat_atl AL011912 26.5000 -89.0000 TS 60 0 5 259
1912160N28272 1912 25 NA GM NOT_NAMED 1912-06-09 15:00:00 TS 26.4574 -89.2574 main 279 279 P_____________ AL011912 26.4574 -89.2574 TS 60 0 5 257
1912160N28272 1912 25 NA GM NOT_NAMED 1912-06-09 18:00:00 TS 26.4000 -89.5000 60 hurdat_atl main 292 292 O_____________ hurdat_atl AL011912 26.4000 -89.5000 TS 60 0 5 250
1912160N28272 1912 25 NA GM NOT_NAMED 1912-06-09 21:00:00 TS 26.3000 -89.7501 main 309 309 P_____________ AL011912 26.3000 -89.7501 TS 60 0 5 246
1912160N28272 1912 25 NA GM NOT_NAMED 1912-06-10 00:00:00 TS 26.2000 -90.0000 60 hurdat_atl main 323 323 O_____________ hurdat_atl AL011912 26.2000 -90.0000 TS 60 0 5 251
1912160N28272 1912 25 NA GM NOT_NAMED 1912-06-10 03:00:00 TS 26.1425 -90.2499 main 334 334 P_____________ AL011912 26.1425 -90.2499 TS 60 0 5 257
1912160N28272 1912 25 NA GM NOT_NAMED 1912-06-10 06:00:00 TS 26.1000 -90.5000 60 hurdat_atl main 335 334 O_____________ hurdat_atl AL011912 26.1000 -90.5000 TS 60 0 5 257
1912160N28272 1912 25 NA GM NOT_NAMED 1912-06-10 09:00:00 TS 26.0350 -90.7726 main 346 346 P_____________ AL011912 26.0350 -90.7726 TS 60 0 5 257
1912160N28272 1912 25 NA GM NOT_NAMED 1912-06-10 12:00:00 TS 26.0000 -91.0000 60 hurdat_atl main 346 346 O_____________ hurdat_atl AL011912 26.0000 -91.0000 TS 60 0 3 270
1912160N28272 1912 25 NA GM NOT_NAMED 1912-06-10 15:00:00 TS 26.0349 -91.1300 main 346 336 P_____________ AL011912 26.0349 -91.1300 TS 60 0 2 299
1912160N28272 1912 25 NA GM NOT_NAMED 1912-06-10 18:00:00 TS 26.1000 -91.2000 60 hurdat_atl main 336 336 O_____________ hurdat_atl AL011912 26.1000 -91.2000 TS 60 0 2 317
1912160N28272 1912 25 NA GM NOT_NAMED 1912-06-10 21:00:00 TS 26.1500 -91.2575 main 337 326 P_____________ AL011912 26.1500 -91.2575 TS 60 0 1 320
1912160N28272 1912 25 NA GM NOT_NAMED 1912-06-11 00:00:00 TS 26.2000 -91.3000 60 hurdat_atl main 326 326 O_____________ hurdat_atl AL011912 26.2000 -91.3000 TS 60 0 1 321
1912160N28272 1912 25 NA GM NOT_NAMED 1912-06-11 03:00:00 TS 26.2425 -91.3500 main 327 316 P_____________ AL011912 26.2425 -91.3500 TS 60 0 1 320
1912160N28272 1912 25 NA GM NOT_NAMED 1912-06-11 06:00:00 TS 26.3000 -91.4000 60 hurdat_atl main 316 305 O_____________ hurdat_atl AL011912 26.3000 -91.4000 TS 60 0 2 331
1912160N28272 1912 25 NA GM NOT_NAMED 1912-06-11 09:00:00 TS 26.3850 -91.4425 main 305 296 P_____________ AL011912 26.3850 -91.4425 TS 60 0 2 335
1912160N28272 1912 25 NA GM NOT_NAMED 1912-06-11 12:00:00 TS 26.5000 -91.5000 60 hurdat_atl main 296 285 O_____________ hurdat_atl AL011912 26.5000 -91.5000 TS 60 0 3 333
1912160N28272 1912 25 NA GM NOT_NAMED 1912-06-11 15:00:00 TS 26.6350 -91.5850 main 287 268 P_____________ AL011912 26.6350 -91.5850 TS 60 0 4 330
1912160N28272 1912 25 NA GM NOT_NAMED 1912-06-11 18:00:00 TS 26.8000 -91.7000 60 hurdat_atl main 268 250 O_____________ hurdat_atl AL011912 26.8000 -91.7000 TS 60 0 4 327
1912160N28272 1912 25 NA GM NOT_NAMED 1912-06-11 21:00:00 TS 26.9925 -91.8425 main 250 237 P_____________ AL011912 26.9925 -91.8425 TS 60 0 5 326
1912160N28272 1912 25 NA GM NOT_NAMED 1912-06-12 00:00:00 TS 27.2000 -92.0000 60 hurdat_atl main 237 223 O_____________ hurdat_atl AL011912 27.2000 -92.0000 TS 60 0 5 326
1912160N28272 1912 25 NA GM NOT_NAMED 1912-06-12 03:00:00 TS 27.4000 -92.1575 main 227 212 P_____________ AL011912 27.4000 -92.1575 TS 60 0 5 326
1912160N28272 1912 25 NA GM NOT_NAMED 1912-06-12 06:00:00 TS 27.6000 -92.3000 60 hurdat_atl main 212 190 O_____________ hurdat_atl AL011912 27.6000 -92.3000 TS 60 0 5 329
1912160N28272 1912 25 NA GM NOT_NAMED 1912-06-12 09:00:00 TS 27.7925 -92.4300 main 190 168 P_____________ AL011912 27.7925 -92.4300 TS 60 0 4 336
1912160N28272 1912 25 NA GM NOT_NAMED 1912-06-12 12:00:00 TS 28.0000 -92.5000 60 hurdat_atl main 168 146 O_____________ hurdat_atl AL011912 28.0000 -92.5000 TS 60 0 4 353
1912160N28272 1912 25 NA GM NOT_NAMED 1912-06-12 15:00:00 TS 28.2349 -92.4949 main 146 112 P_____________ AL011912 28.2349 -92.4949 TS 60 0 5 10
1912160N28272 1912 25 NA GM NOT_NAMED 1912-06-12 18:00:00 TS 28.5000 -92.4000 60 hurdat_atl main 112 78 O_____________ hurdat_atl AL011912 28.5000 -92.4000 TS 60 0 6 23
1912160N28272 1912 25 NA GM NOT_NAMED 1912-06-12 21:00:00 TS 28.7927 -92.2286 main 78 53 P_____________ AL011912 28.7927 -92.2286 TS 60 0 7 30
1912160N28272 1912 25 NA GM NOT_NAMED 1912-06-13 00:00:00 TS 29.1000 -92.0000 60 hurdat_atl main 53 29 O_____________ hurdat_atl AL011912 29.1000 -92.0000 TS 60 0 7 36
1912160N28272 1912 25 NA GM NOT_NAMED 1912-06-13 03:00:00 TS 29.3292 -91.7768 main 29 0 P_____________ AL011912 29.3292 -91.7768 TS 60 0 7 35
1912160N28272 1912 25 NA GM NOT_NAMED 1912-06-13 05:00:00 TS 29.6000 -91.6000 60 hurdat_atl main 0 0 O_____________ hurdat_atl AL011912 29.6000 -91.6000 L TS 60 0 11 27
1912160N28272 1912 25 NA NA NOT_NAMED 1912-06-13 06:00:00 TS 29.8000 -91.5000 55 hurdat_atl main 0 0 O_____________ hurdat_atl AL011912 29.8000 -91.5000 TS 55 0 10 30
1912160N28272 1912 25 NA NA NOT_NAMED 1912-06-13 09:00:00 TS 30.1991 -91.1984 main 0 0 P_____________ AL011912 30.1991 -91.1984 TS 52 0 9 41
1912160N28272 1912 25 NA NA NOT_NAMED 1912-06-13 12:00:00 TS 30.5000 -90.8000 50 hurdat_atl main 0 0 O_____________ hurdat_atl AL011912 30.5000 -90.8000 TS 50 0 11 46
1912160N28272 1912 25 NA NA NOT_NAMED 1912-06-13 15:00:00 TS 30.9768 -90.2469 main 0 0 P_____________ AL011912 30.9768 -90.2469 TS 47 0 15 48
1912160N28272 1912 25 NA NA NOT_NAMED 1912-06-13 18:00:00 TS 31.5000 -89.5000 45 hurdat_atl main 0 0 O_____________ hurdat_atl AL011912 31.5000 -89.5000 TS 45 0 17 54
1912160N28272 1912 25 NA NA NOT_NAMED 1912-06-13 21:00:00 TS 31.9982 -88.6258 main 0 0 P_____________ AL011912 31.9982 -88.6258 TS 42 0 20 59
1912160N28272 1912 25 NA NA NOT_NAMED 1912-06-14 00:00:00 TS 32.5000 -87.5000 40 hurdat_atl main 0 0 O_____________ hurdat_atl AL011912 32.5000 -87.5000 TS 40 0 23 65
1912160N28272 1912 25 NA NA NOT_NAMED 1912-06-14 03:00:00 TS 32.9992 -86.1111 main 0 0 P_____________ AL011912 32.9992 -86.1111 TS 37 0 27 68
1912160N28272 1912 25 NA NA NOT_NAMED 1912-06-14 06:00:00 ET 33.5000 -84.5000 35 hurdat_atl main 0 0 O_____________ hurdat_atl AL011912 33.5000 -84.5000 EX 35 -4 30 70
1912160N28272 1912 25 NA NA NOT_NAMED 1912-06-14 09:00:00 ET 34.0394 -82.7145 main 0 0 P_____________ AL011912 34.0394 -82.7145 EX 35 -4 31 71
1912160N28272 1912 25 NA NA NOT_NAMED 1912-06-14 12:00:00 ET 34.5000 -81.0000 35 hurdat_atl main 0 0 O_____________ hurdat_atl AL011912 34.5000 -81.0000 EX 35 -4 27 73
1912160N28272 1912 25 NA NA NOT_NAMED 1912-06-14 15:00:00 ET 34.8004 -79.5979 main 0 0 P_____________ AL011912 34.8004 -79.5979 EX 35 -4 21 76
1912160N28272 1912 25 NA NA NOT_NAMED 1912-06-14 18:00:00 ET 35.0000 -78.5000 35 hurdat_atl main 0 0 O_____________ hurdat_atl AL011912 35.0000 -78.5000 EX 35 -4 16 77
1912160N28272 1912 25 NA NA NOT_NAMED 1912-06-14 21:00:00 ET 35.1779 -77.6667 main 0 0 P_____________ AL011912 35.1779 -77.6667 EX 35 -4 13 76
1912160N28272 1912 25 NA NA NOT_NAMED 1912-06-15 00:00:00 ET 35.3000 -77.0000 35 hurdat_atl main 0 0 O_____________ hurdat_atl AL011912 35.3000 -77.0000 EX 35 -4 12 81
1912160N28272 1912 25 NA NA NOT_NAMED 1912-06-15 03:00:00 ET 35.3648 -76.2695 main 0 0 P_____________ AL011912 35.3648 -76.2695 EX 37 -4 11 85
1912160N28272 1912 25 NA NA NOT_NAMED 1912-06-15 06:00:00 ET 35.4000 -75.6000 40 hurdat_atl main 24 24 O_____________ hurdat_atl AL011912 35.4000 -75.6000 EX 40 -4 10 85
1912160N28272 1912 25 NA NA NOT_NAMED 1912-06-15 09:00:00 ET 35.4565 -75.0575 main 49 49 P_____________ AL011912 35.4565 -75.0575 EX 40 -4 9 84
1912160N28272 1912 25 NA NA NOT_NAMED 1912-06-15 12:00:00 ET 35.5000 -74.5000 40 hurdat_atl main 96 96 O_____________ hurdat_atl AL011912 35.5000 -74.5000 EX 40 -4 10 87
1912160N28272 1912 25 NA NA NOT_NAMED 1912-06-15 15:00:00 ET 35.5067 -73.8173 main 156 156 P_____________ AL011912 35.5067 -73.8173 EX 40 -4 12 90
1912160N28272 1912 25 NA NA NOT_NAMED 1912-06-15 18:00:00 ET 35.5000 -73.0000 40 hurdat_atl main 227 227 O_____________ hurdat_atl AL011912 35.5000 -73.0000 EX 40 -4 15 90
1912160N28272 1912 25 NA NA NOT_NAMED 1912-06-15 21:00:00 ET 35.5007 -72.0075 main 317 317 P_____________ AL011912 35.5007 -72.0075 EX 37 -4 16 90
1912160N28272 1912 25 NA NA NOT_NAMED 1912-06-16 00:00:00 TS 35.5000 -71.0000 35 hurdat_atl main 406 406 O_____________ hurdat_atl AL011912 35.5000 -71.0000 TS 35 0 15 90
1912160N28272 1912 25 NA NA NOT_NAMED 1912-06-16 03:00:00 TS 35.4991 -70.1550 main 478 478 P_____________ AL011912 35.4991 -70.1550 TS 35 0 13 90
1912160N28272 1912 25 NA NA NOT_NAMED 1912-06-16 06:00:00 TS 35.5000 -69.4000 35 hurdat_atl main 550 550 O_____________ hurdat_atl AL011912 35.5000 -69.4000 TS 35 0 12 89
1912160N28272 1912 25 NA NA NOT_NAMED 1912-06-16 09:00:00 TS 35.5148 -68.6553 main 613 613 P_____________ AL011912 35.5148 -68.6553 TS 32 -1 11 90
1912160N28272 1912 25 NA NA NOT_NAMED 1912-06-16 12:00:00 TS 35.5000 -68.0000 30 hurdat_atl main 676 676 O_____________ hurdat_atl AL011912 35.5000 -68.0000 TD 30 -1 10 96
1912160N28272 1912 25 NA NA NOT_NAMED 1912-06-16 15:00:00 TS 35.4145 -67.4624 main 722 722 P_____________ AL011912 35.4145 -67.4624 TD 30 -1 8 104
1912160N28272 1912 25 NA NA NOT_NAMED 1912-06-16 18:00:00 TS 35.3000 -67.0000 30 hurdat_atl main 758 758 O_____________ hurdat_atl AL011912 35.3000 -67.0000 TD 30 -1 8 105
1912160N28272 1912 25 NA NA NOT_NAMED 1912-06-16 21:00:00 TS 35.2073 -66.5352 main 784 784 P_____________ AL011912 35.2073 -66.5352 TD 30 -1 8 105
1912160N28272 1912 25 NA NA NOT_NAMED 1912-06-17 00:00:00 TS 35.1000 -66.1000 30 hurdat_atl main 809 809 O_____________ hurdat_atl AL011912 35.1000 -66.1000 TD 30 -1 7 110
1912160N28272 1912 25 NA NA NOT_NAMED 1912-06-17 03:00:00 TS 34.9573 -65.6926 main 834 834 P_____________ AL011912 34.9573 -65.6926 TD 30 -1 7 115
1912160N28272 1912 25 NA NA NOT_NAMED 1912-06-17 06:00:00 TS 34.8000 -65.3000 30 hurdat_atl main 870 870 O_____________ hurdat_atl AL011912 34.8000 -65.3000 TD 30 -1 7 116
1912160N28272 1912 25 NA NA NOT_NAMED 1912-06-17 09:00:00 TS 34.6478 -64.9023 main 906 906 P_____________ AL011912 34.6478 -64.9023 TD 30 -1 7 115
1912160N28272 1912 25 NA NA NOT_NAMED 1912-06-17 12:00:00 TS 34.5000 -64.5000 30 hurdat_atl main 933 O_____________ hurdat_atl AL011912 34.5000 -64.5000 TD 30 -1 7 114

About IBTrACS Database

This database is a web-friendly format of International Best Track Archive for Climate Stewardship (IBTrACS), a global best track data archive curated by NOAA dating back to 1842.

Updated: 2021-12-03